createdAt,value
2018-03-11T00:00:19.811Z,23.10
2018-03-11T00:02:46.728Z,22.60
2018-03-11T00:05:13.768Z,21.87
2018-03-11T00:07:40.800Z,23.47
2018-03-11T00:10:07.950Z,22.87
2018-03-11T00:12:35.270Z,22.73
2018-03-11T00:15:02.178Z,23.43
2018-03-11T00:17:29.102Z,24.77
2018-03-11T00:19:56.004Z,23.23
2018-03-11T00:22:23.000Z,24.50
2018-03-11T00:24:50.044Z,24.23
2018-03-11T00:27:16.976Z,24.83
2018-03-11T00:29:43.915Z,25.23
2018-03-11T00:32:10.827Z,25.27
2018-03-11T00:34:37.737Z,24.03
2018-03-11T00:37:04.818Z,25.03
2018-03-11T00:39:31.670Z,24.70
2018-03-11T00:41:58.584Z,25.07
2018-03-11T00:44:25.643Z,25.63
2018-03-11T00:46:52.560Z,25.37
2018-03-11T00:49:19.524Z,26.27
2018-03-11T00:51:46.504Z,26.77
2018-03-11T00:54:13.434Z,26.90
2018-03-11T00:56:40.454Z,27.00
2018-03-11T00:59:07.420Z,25.90
2018-03-11T01:01:34.479Z,27.20
2018-03-11T01:04:01.482Z,26.17
2018-03-11T01:06:28.424Z,27.17
2018-03-11T01:08:55.332Z,27.13
2018-03-11T01:11:22.373Z,26.37
2018-03-11T01:13:49.424Z,26.33
2018-03-11T01:16:16.510Z,26.07
2018-03-11T01:18:43.590Z,27.43
2018-03-11T01:21:10.615Z,27.97
2018-03-11T01:23:37.518Z,26.10
2018-03-11T01:26:04.497Z,28.77
2018-03-11T01:28:31.483Z,28.23
2018-03-11T01:30:58.535Z,27.93
2018-03-11T01:33:25.463Z,28.50
2018-03-11T01:35:52.528Z,28.07
2018-03-11T01:38:19.568Z,27.70
2018-03-11T01:40:46.933Z,26.57
2018-03-11T01:43:13.939Z,29.13
2018-03-11T01:45:40.829Z,29.73
2018-03-11T01:48:07.730Z,28.80
2018-03-11T01:50:34.743Z,30.47
2018-03-11T01:53:07.722Z,30.43
2018-03-11T01:55:34.801Z,30.00
2018-03-11T01:58:01.712Z,31.23
2018-03-11T02:00:28.719Z,30.20
2018-03-11T02:02:55.673Z,30.60
2018-03-11T02:05:22.670Z,31.27
2018-03-11T02:07:49.573Z,32.73
2018-03-11T02:10:16.579Z,32.10
2018-03-11T02:12:43.714Z,31.80
2018-03-11T02:15:10.658Z,31.50
2018-03-11T02:17:37.715Z,31.40
2018-03-11T02:20:04.678Z,31.80
2018-03-11T02:22:32.972Z,31.87
2018-03-11T02:24:59.913Z,31.77
2018-03-11T02:27:26.907Z,31.60
2018-03-11T02:29:53.729Z,30.27
2018-03-11T02:32:20.738Z,31.27
2018-03-11T02:34:47.795Z,30.27
2018-03-11T02:37:14.718Z,32.03
2018-03-11T02:39:41.622Z,31.37
2018-03-11T02:42:08.610Z,33.03
2018-03-11T02:44:35.714Z,32.03
2018-03-11T02:47:02.840Z,30.80
2018-03-11T02:49:29.722Z,33.10
2018-03-11T02:51:56.838Z,32.17
2018-03-11T02:54:23.851Z,33.70
2018-03-11T02:56:50.774Z,31.67
2018-03-11T02:59:17.793Z,33.43
2018-03-11T03:01:44.677Z,30.70
2018-03-11T03:04:11.537Z,31.50
2018-03-11T03:06:38.521Z,30.53
2018-03-11T03:09:05.534Z,32.93
2018-03-11T03:11:32.399Z,32.07
2018-03-11T03:13:59.339Z,31.67
2018-03-11T03:16:26.399Z,32.77
2018-03-11T03:18:53.390Z,31.03
2018-03-11T03:21:20.848Z,32.57
2018-03-11T03:23:47.938Z,32.00
2018-03-11T03:26:15.076Z,33.03
2018-03-11T03:28:42.183Z,31.13
2018-03-11T03:31:09.266Z,31.03
2018-03-11T03:33:36.424Z,32.07
2018-03-11T03:36:03.711Z,31.73
2018-03-11T03:38:30.720Z,32.67
2018-03-11T03:40:57.754Z,31.80
2018-03-11T03:43:24.761Z,32.57
2018-03-11T03:45:51.813Z,32.30
2018-03-11T03:48:18.773Z,32.57
2018-03-11T03:50:45.974Z,32.43
2018-03-11T03:53:12.831Z,33.67
2018-03-11T03:55:39.728Z,36.13
2018-03-11T03:58:06.612Z,34.93
2018-03-11T04:00:33.668Z,33.50
2018-03-11T04:03:00.612Z,34.87
2018-03-11T04:05:27.572Z,33.83
2018-03-11T04:07:54.484Z,34.37
2018-03-11T04:10:21.478Z,31.80
2018-03-11T04:12:48.541Z,31.73
2018-03-11T04:15:15.508Z,30.07
2018-03-11T04:17:42.369Z,31.57
2018-03-11T04:20:09.270Z,28.23
2018-03-11T04:22:36.372Z,30.80
2018-03-11T04:25:03.230Z,31.10
2018-03-11T04:27:30.166Z,30.07
2018-03-11T04:29:57.175Z,30.50
2018-03-11T04:32:24.029Z,31.57
2018-03-11T04:34:50.896Z,30.60
2018-03-11T04:37:17.824Z,30.70
2018-03-11T04:39:44.865Z,29.60
2018-03-11T04:42:11.811Z,32.53
2018-03-11T04:44:38.675Z,31.13
2018-03-11T04:47:05.619Z,31.17
2018-03-11T04:49:32.609Z,32.23
2018-03-11T04:51:59.676Z,32.57
2018-03-11T04:54:26.609Z,31.17
2018-03-11T04:56:53.542Z,30.93
2018-03-11T04:59:20.633Z,33.10
2018-03-11T05:01:47.522Z,30.97
2018-03-11T05:04:14.383Z,30.33
2018-03-11T05:06:41.579Z,31.30
2018-03-11T05:09:08.510Z,30.73
2018-03-11T05:11:35.627Z,30.23
2018-03-11T05:14:02.536Z,30.10
2018-03-11T05:16:29.675Z,31.53
2018-03-11T05:18:56.631Z,31.70
2018-03-11T05:21:23.790Z,31.60
2018-03-11T05:23:50.778Z,31.63
2018-03-11T05:26:17.958Z,31.60
2018-03-11T05:28:44.957Z,31.50
2018-03-11T05:31:12.139Z,32.60
2018-03-11T05:33:39.737Z,30.60
2018-03-11T05:36:07.435Z,34.90
2018-03-11T05:38:34.489Z,33.92
2018-03-11T05:41:01.663Z,34.40
2018-03-11T05:43:28.591Z,33.30
2018-03-11T05:45:57.153Z,34.73
2018-03-11T05:48:24.044Z,34.23
2018-03-11T05:50:51.239Z,33.60
2018-03-11T05:53:18.180Z,33.80
2018-03-11T05:55:45.080Z,30.67
2018-03-11T05:58:12.054Z,31.27
2018-03-11T06:00:39.026Z,30.13
2018-03-11T06:03:05.983Z,31.93
2018-03-11T06:05:32.990Z,30.57
2018-03-11T06:07:59.868Z,28.40
2018-03-11T06:10:26.756Z,29.90
2018-03-11T06:12:53.711Z,30.07
2018-03-11T06:15:21.018Z,29.07
2018-03-11T06:17:47.993Z,28.60
2018-03-11T06:20:15.007Z,29.03
2018-03-11T06:22:41.861Z,28.27
2018-03-11T06:25:08.878Z,27.97
2018-03-11T06:27:36.041Z,26.97
2018-03-11T06:30:02.939Z,26.77
2018-03-11T06:32:29.864Z,26.57
2018-03-11T06:34:56.809Z,26.70
2018-03-11T06:37:23.784Z,25.00
2018-03-11T06:39:50.728Z,25.57
2018-03-11T06:42:17.645Z,26.10
2018-03-11T06:44:44.636Z,26.07
2018-03-11T06:47:11.570Z,24.67
2018-03-11T06:49:38.488Z,23.03
2018-03-11T06:52:05.696Z,19.40
2018-03-11T06:54:32.674Z,18.03
2018-03-11T06:56:59.637Z,15.83
2018-03-11T06:59:26.509Z,15.60
2018-03-11T07:01:53.470Z,14.40
2018-03-11T07:04:20.367Z,15.43
2018-03-11T07:06:47.192Z,15.47
2018-03-11T07:09:14.105Z,16.13
2018-03-11T07:11:41.065Z,14.93
2018-03-11T07:14:07.944Z,16.10
2018-03-11T07:16:35.049Z,16.50
2018-03-11T07:19:01.967Z,16.37
2018-03-11T07:21:28.847Z,16.67
2018-03-11T07:23:55.822Z,17.60
2018-03-11T07:26:22.695Z,17.40
2018-03-11T07:28:49.696Z,15.37
2018-03-11T07:31:16.933Z,17.00
2018-03-11T07:33:43.833Z,15.27
2018-03-11T07:36:10.906Z,14.67
2018-03-11T07:38:37.743Z,14.87
2018-03-11T07:41:04.950Z,14.77
2018-03-11T07:43:31.857Z,14.03
2018-03-11T07:45:58.873Z,14.17
2018-03-11T07:48:25.855Z,14.10
2018-03-11T07:50:52.933Z,13.53
2018-03-11T07:53:20.589Z,14.00
2018-03-11T07:55:47.805Z,12.60
2018-03-11T07:58:14.780Z,12.80
2018-03-11T08:00:41.832Z,12.17
2018-03-11T08:03:08.835Z,11.27
2018-03-11T08:05:35.804Z,11.43
2018-03-11T08:08:02.714Z,12.90
2018-03-11T08:10:29.587Z,12.27
2018-03-11T08:12:56.406Z,13.07
2018-03-11T08:15:23.294Z,12.87
2018-03-11T08:17:50.599Z,12.53
2018-03-11T08:20:17.510Z,12.23
2018-03-11T08:22:44.470Z,12.50
2018-03-11T08:25:11.371Z,11.90
2018-03-11T08:27:38.223Z,12.93
2018-03-11T08:30:05.170Z,12.90
2018-03-11T08:32:32.078Z,13.03
2018-03-11T08:34:58.941Z,13.27
2018-03-11T08:37:25.808Z,13.17
2018-03-11T08:39:52.707Z,11.70
2018-03-11T08:42:19.634Z,14.87
2018-03-11T08:44:46.666Z,11.93
2018-03-11T08:47:13.554Z,11.37
2018-03-11T08:49:40.522Z,11.70
2018-03-11T08:52:07.475Z,13.23
2018-03-11T08:54:34.347Z,12.67
2018-03-11T08:57:01.319Z,12.83
2018-03-11T08:59:28.524Z,13.67
2018-03-11T09:01:55.704Z,12.13
2018-03-11T09:04:22.556Z,11.60
2018-03-11T09:06:49.503Z,10.30
2018-03-11T09:09:16.432Z,9.67
2018-03-11T09:11:43.336Z,8.33
2018-03-11T09:14:11.153Z,8.47
2018-03-11T09:16:38.151Z,8.33
2018-03-11T09:19:05.193Z,7.83
2018-03-11T09:21:32.155Z,7.17
2018-03-11T09:23:59.084Z,6.73
2018-03-11T09:26:26.381Z,7.30
2018-03-11T09:28:53.258Z,7.57
2018-03-11T09:31:20.150Z,6.87
2018-03-11T09:33:46.965Z,7.00
2018-03-11T09:36:13.866Z,6.97
2018-03-11T09:38:40.724Z,6.67
2018-03-11T09:41:07.873Z,6.37
2018-03-11T09:43:34.740Z,6.83
2018-03-11T09:46:01.692Z,6.90
2018-03-11T09:48:28.547Z,7.40
2018-03-11T09:50:56.055Z,6.27
2018-03-11T09:53:22.942Z,7.33
2018-03-11T09:55:50.047Z,7.50
2018-03-11T09:58:16.842Z,7.63
2018-03-11T10:00:43.819Z,9.27
2018-03-11T10:03:10.753Z,8.70
2018-03-11T10:05:37.702Z,9.20
2018-03-11T10:08:04.747Z,7.07
2018-03-11T10:10:31.909Z,7.83
2018-03-11T10:12:58.808Z,7.70
2018-03-11T10:15:25.703Z,9.73
2018-03-11T10:17:52.600Z,8.00
2018-03-11T10:20:19.451Z,8.53
2018-03-11T10:22:46.289Z,8.07
2018-03-11T10:25:13.144Z,8.57
2018-03-11T10:27:39.954Z,8.30
2018-03-11T10:30:06.964Z,9.27
2018-03-11T10:32:33.710Z,8.97
2018-03-11T10:35:00.538Z,8.80
2018-03-11T10:37:27.425Z,9.47
2018-03-11T10:39:54.229Z,8.27
2018-03-11T10:42:21.096Z,8.60
2018-03-11T10:44:48.004Z,8.33
2018-03-11T10:47:14.921Z,8.33
2018-03-11T10:49:41.781Z,8.30
2018-03-11T10:52:08.631Z,8.03
2018-03-11T10:54:40.508Z,8.40
2018-03-11T10:57:07.354Z,8.67
2018-03-11T10:59:34.316Z,8.57
2018-03-11T11:02:01.232Z,8.50
2018-03-11T11:04:34.207Z,7.63
2018-03-11T11:07:01.133Z,7.77
2018-03-11T11:09:28.097Z,8.50
2018-03-11T11:11:55.087Z,8.13
2018-03-11T11:14:21.986Z,8.10
2018-03-11T11:16:51.838Z,8.13
2018-03-11T11:19:20.324Z,8.13
2018-03-11T11:21:48.390Z,8.60
2018-03-11T11:24:16.436Z,8.63
2018-03-11T11:26:43.805Z,8.70
2018-03-11T11:29:12.189Z,8.03
2018-03-11T11:31:39.266Z,8.63
2018-03-11T11:34:08.376Z,8.23
2018-03-11T11:36:36.377Z,9.87
2018-03-11T11:39:04.566Z,8.93
2018-03-11T11:41:32.772Z,9.20
2018-03-11T11:44:00.072Z,7.97
2018-03-11T11:46:27.288Z,9.07
2018-03-11T11:48:54.366Z,8.63
2018-03-11T11:51:21.431Z,8.93
2018-03-11T11:53:48.563Z,9.07
2018-03-11T11:56:15.592Z,9.17
2018-03-11T11:58:42.461Z,9.00
2018-03-11T12:01:09.548Z,8.53
2018-03-11T12:03:37.043Z,8.47
2018-03-11T12:06:03.960Z,9.00
2018-03-11T12:08:30.914Z,8.93
2018-03-11T12:10:57.983Z,9.10
2018-03-11T12:13:24.919Z,9.77
2018-03-11T12:15:52.000Z,9.63
2018-03-11T12:18:18.894Z,9.73
2018-03-11T12:20:46.352Z,10.47
2018-03-11T12:23:13.643Z,9.60
2018-03-11T12:25:41.289Z,9.97
2018-03-11T12:28:08.467Z,10.07
2018-03-11T12:30:35.911Z,9.33
2018-03-11T12:33:02.968Z,9.80
2018-03-11T12:35:29.872Z,9.37
2018-03-11T12:37:57.027Z,8.47
2018-03-11T12:40:23.975Z,9.37
2018-03-11T12:42:51.358Z,9.83
2018-03-11T12:45:18.572Z,9.93
2018-03-11T12:47:45.621Z,9.43
2018-03-11T12:50:12.926Z,10.33
2018-03-11T12:52:40.058Z,9.43
2018-03-11T12:55:07.089Z,9.90
2018-03-11T12:57:34.145Z,9.27
2018-03-11T13:00:01.020Z,9.40
2018-03-11T13:02:27.987Z,9.33
2018-03-11T13:04:54.987Z,9.43
2018-03-11T13:07:22.049Z,8.33
2018-03-11T13:09:50.449Z,8.03
2018-03-11T13:12:17.625Z,8.70
2018-03-11T13:14:44.533Z,8.30
2018-03-11T13:17:11.930Z,7.63
2018-03-11T13:19:39.184Z,8.30
2018-03-11T13:22:06.211Z,7.90
2018-03-11T13:24:33.171Z,7.47
2018-03-11T13:27:00.218Z,6.70
2018-03-11T13:29:27.268Z,7.43
2018-03-11T13:32:00.581Z,7.00
2018-03-11T13:34:29.457Z,7.77
2018-03-11T13:36:56.803Z,7.93
2018-03-11T13:39:29.698Z,7.10
2018-03-11T13:41:56.758Z,6.73
2018-03-11T13:44:24.877Z,6.60
2018-03-11T13:46:57.928Z,7.30
2018-03-11T13:49:25.096Z,7.30
2018-03-11T13:51:58.351Z,8.07
2018-03-11T13:54:25.897Z,8.50
2018-03-11T13:56:58.637Z,8.80
2018-03-11T13:59:26.400Z,8.63
2018-03-11T14:01:53.257Z,8.13
2018-03-11T14:04:20.273Z,7.93
2018-03-11T14:06:47.368Z,7.23
2018-03-11T14:09:14.225Z,7.70
2018-03-11T14:11:41.556Z,7.20
2018-03-11T14:14:08.446Z,7.10
2018-03-11T14:16:35.390Z,7.70
2018-03-11T14:19:02.370Z,7.93
2018-03-11T14:21:29.627Z,7.13
2018-03-11T14:23:56.656Z,6.97
2018-03-11T14:26:23.997Z,6.87
2018-03-11T14:28:51.087Z,7.17
2018-03-11T14:31:18.141Z,6.97
2018-03-11T14:33:45.828Z,6.40
2018-03-11T14:36:13.145Z,5.80
2018-03-11T14:38:40.064Z,6.37
2018-03-11T14:41:07.188Z,6.17
2018-03-11T14:43:34.021Z,6.30
2018-03-11T14:46:01.114Z,6.27
2018-03-11T14:48:27.965Z,6.73
2018-03-11T14:50:55.271Z,5.73
2018-03-11T14:53:22.222Z,6.60
2018-03-11T14:55:49.314Z,6.70
2018-03-11T14:58:16.254Z,6.63
2018-03-11T15:00:43.285Z,6.57
2018-03-11T15:03:10.324Z,7.10
2018-03-11T15:05:37.636Z,7.17
2018-03-11T15:08:04.908Z,7.53
2018-03-11T15:10:31.873Z,8.63
2018-03-11T15:12:59.642Z,8.80
2018-03-11T15:15:27.604Z,8.63
2018-03-11T15:17:55.830Z,8.63
2018-03-11T15:20:22.781Z,8.50
2018-03-11T15:22:51.086Z,8.93
2018-03-11T15:25:18.268Z,8.53
2018-03-11T15:27:45.743Z,8.37
2018-03-11T15:30:14.818Z,9.00
2018-03-11T15:32:41.803Z,8.10
2018-03-11T15:35:13.732Z,8.93
2018-03-11T15:37:41.938Z,8.97
2018-03-11T15:40:10.044Z,8.27
2018-03-11T15:42:37.498Z,9.20
2018-03-11T15:45:04.637Z,8.93
2018-03-11T15:47:31.858Z,9.07
2018-03-11T15:49:59.089Z,8.37
2018-03-11T15:52:26.447Z,7.70
2018-03-11T15:54:53.514Z,8.17
2018-03-11T15:57:20.775Z,7.87
2018-03-11T15:59:47.767Z,8.20
2018-03-11T16:02:17.929Z,7.87
2018-03-11T16:04:46.666Z,7.17
2018-03-11T16:07:16.646Z,6.73
2018-03-11T16:09:45.842Z,4.53
2018-03-11T16:12:13.466Z,3.90
2018-03-11T16:14:42.155Z,2.73
2018-03-11T16:17:09.725Z,2.33
2018-03-11T16:19:36.678Z,1.70
2018-03-11T16:22:03.819Z,1.70
2018-03-11T16:24:30.864Z,1.60
2018-03-11T16:26:59.020Z,1.60
2018-03-11T16:29:26.037Z,1.47
2018-03-11T16:31:53.079Z,1.13
2018-03-11T16:34:20.109Z,1.50
2018-03-11T16:36:47.408Z,1.50
2018-03-11T16:39:14.502Z,1.20
2018-03-11T16:41:41.484Z,1.60
2018-03-11T16:44:08.446Z,1.00
2018-03-11T16:46:35.737Z,1.73
2018-03-11T16:49:02.720Z,1.90
2018-03-11T16:51:29.947Z,1.60
2018-03-11T16:53:56.972Z,1.40
2018-03-11T16:56:24.316Z,1.70
2018-03-11T16:58:51.392Z,1.70
2018-03-11T17:01:18.553Z,1.27
2018-03-11T17:03:45.837Z,1.93
2018-03-11T17:06:14.065Z,1.43
2018-03-11T17:08:41.159Z,2.00
2018-03-11T17:11:08.827Z,2.27
2018-03-11T17:13:35.731Z,1.60
2018-03-11T17:16:02.820Z,2.17
2018-03-11T17:18:29.889Z,2.03
2018-03-11T17:20:56.893Z,3.13
2018-03-11T17:23:23.825Z,2.50
2018-03-11T17:25:50.892Z,1.97
2018-03-11T17:28:17.818Z,1.63
2018-03-11T17:30:46.348Z,1.83
2018-03-11T17:33:13.209Z,1.60
2018-03-11T17:35:40.149Z,1.67
2018-03-11T17:38:07.131Z,1.50
2018-03-11T17:40:36.572Z,1.90
2018-03-11T17:43:03.811Z,1.60
2018-03-11T17:45:31.468Z,2.30
2018-03-11T17:47:59.160Z,1.60
2018-03-11T17:50:27.461Z,1.70
2018-03-11T17:53:01.310Z,1.80
2018-03-11T17:55:29.765Z,1.80
2018-03-11T17:57:57.097Z,1.67
2018-03-11T18:00:25.540Z,1.50
2018-03-11T18:02:53.281Z,1.83
2018-03-11T18:05:20.338Z,1.60
2018-03-11T18:07:47.359Z,1.80
2018-03-11T18:10:14.282Z,1.60
2018-03-11T18:12:41.714Z,1.70
2018-03-11T18:15:08.716Z,1.80
2018-03-11T18:17:36.034Z,1.80
2018-03-11T18:20:03.028Z,1.73
2018-03-11T18:22:30.456Z,1.70
2018-03-11T18:24:57.376Z,2.00
2018-03-11T18:27:24.269Z,1.80
2018-03-11T18:29:51.358Z,2.00
2018-03-11T18:32:18.294Z,1.93
2018-03-11T18:34:45.346Z,2.10
2018-03-11T18:37:12.237Z,1.90
2018-03-11T18:39:39.148Z,1.80
2018-03-11T18:42:06.030Z,1.90
2018-03-11T18:44:32.907Z,1.97
2018-03-11T18:46:59.963Z,2.10
2018-03-11T18:49:27.066Z,2.00
2018-03-11T18:51:53.975Z,2.13
2018-03-11T18:54:21.009Z,2.10
2018-03-11T18:56:47.939Z,2.00
2018-03-11T18:59:14.892Z,2.10
2018-03-11T19:01:41.825Z,2.00
2018-03-11T19:04:08.648Z,2.10
2018-03-11T19:06:35.744Z,2.13
2018-03-11T19:09:02.690Z,2.50
2018-03-11T19:11:29.826Z,2.40
2018-03-11T19:13:56.760Z,2.03
2018-03-11T19:16:23.855Z,2.00
2018-03-11T19:18:50.694Z,2.03
2018-03-11T19:21:17.692Z,2.83
2018-03-11T19:23:44.627Z,2.97
2018-03-11T19:26:11.542Z,2.40
2018-03-11T19:28:38.413Z,1.70
2018-03-11T19:31:05.319Z,1.70
2018-03-11T19:33:32.290Z,1.90
2018-03-11T19:35:59.258Z,2.00
2018-03-11T19:38:26.204Z,2.30
2018-03-11T19:40:53.135Z,1.70
2018-03-11T19:43:20.077Z,2.13
2018-03-11T19:45:47.078Z,1.73
2018-03-11T19:48:14.158Z,1.80
2018-03-11T19:50:41.094Z,1.70
2018-03-11T19:53:07.948Z,1.97
2018-03-11T19:55:34.808Z,1.90
2018-03-11T19:58:01.709Z,1.70
2018-03-11T20:00:28.573Z,1.80
2018-03-11T20:02:55.745Z,1.70
2018-03-11T20:05:22.667Z,1.67
2018-03-11T20:07:49.840Z,1.63
2018-03-11T20:10:16.791Z,1.40
2018-03-11T20:12:43.759Z,1.70
2018-03-11T20:15:10.765Z,1.73
2018-03-11T20:17:37.753Z,2.00
2018-03-11T20:20:04.877Z,2.20
2018-03-11T20:22:31.879Z,1.77
2018-03-11T20:24:58.737Z,2.50
2018-03-11T20:27:25.806Z,1.93
2018-03-11T20:29:53.244Z,2.30
2018-03-11T20:32:20.361Z,1.97
2018-03-11T20:34:47.829Z,2.13
2018-03-11T20:37:14.878Z,2.67
2018-03-11T20:39:42.277Z,1.80
2018-03-11T20:42:09.246Z,2.60
2018-03-11T20:44:36.238Z,2.27
2018-03-11T20:47:03.291Z,2.20
2018-03-11T20:49:30.252Z,2.90
2018-03-11T20:51:57.200Z,2.40
2018-03-11T20:54:24.205Z,2.50
2018-03-11T20:56:51.064Z,2.20
2018-03-11T20:59:18.169Z,2.33
2018-03-11T21:01:45.399Z,2.60
2018-03-11T21:04:12.275Z,2.70
2018-03-11T21:06:39.237Z,2.60
2018-03-11T21:09:06.219Z,2.77
2018-03-11T21:11:33.258Z,2.53
2018-03-11T21:14:00.137Z,3.07
2018-03-11T21:16:27.211Z,2.83
2018-03-11T21:18:54.401Z,2.97
2018-03-11T21:21:21.407Z,2.90
2018-03-11T21:23:48.375Z,2.97
2018-03-11T21:26:15.413Z,2.63
2018-03-11T21:28:42.355Z,3.30
2018-03-11T21:31:09.235Z,3.17
2018-03-11T21:33:36.299Z,2.93
2018-03-11T21:36:03.532Z,3.20
2018-03-11T21:38:30.586Z,3.10
2018-03-11T21:40:57.614Z,2.63
2018-03-11T21:43:24.475Z,2.90
2018-03-11T21:45:51.500Z,3.23
2018-03-11T21:48:18.538Z,2.77
2018-03-11T21:50:45.553Z,3.07
2018-03-11T21:53:12.442Z,2.73
2018-03-11T21:55:39.284Z,3.20
2018-03-11T21:58:06.557Z,2.43
2018-03-11T22:00:33.586Z,2.90
2018-03-11T22:03:00.455Z,3.27
2018-03-11T22:05:27.476Z,3.20
2018-03-11T22:07:54.479Z,3.20
2018-03-11T22:10:21.461Z,2.83
2018-03-11T22:12:48.470Z,3.43
2018-03-11T22:15:15.401Z,3.37
2018-03-11T22:17:42.463Z,3.27
2018-03-11T22:20:09.331Z,3.20
2018-03-11T22:22:36.266Z,3.43
2018-03-11T22:25:03.252Z,3.30
2018-03-11T22:27:30.236Z,3.87
2018-03-11T22:29:57.128Z,3.40
2018-03-11T22:32:24.119Z,3.20
2018-03-11T22:34:51.066Z,3.57
2018-03-11T22:37:17.981Z,3.60
2018-03-11T22:39:45.012Z,3.57
2018-03-11T22:42:12.130Z,3.50
2018-03-11T22:44:39.083Z,4.10
2018-03-11T22:47:06.146Z,3.70
2018-03-11T22:49:33.115Z,4.00
2018-03-11T22:52:00.237Z,4.43
2018-03-11T22:54:27.078Z,4.20
2018-03-11T22:56:54.138Z,4.10
2018-03-11T22:59:21.045Z,4.07
2018-03-11T23:01:47.992Z,4.00
2018-03-11T23:04:15.004Z,3.63
2018-03-11T23:06:41.978Z,4.13
2018-03-11T23:09:08.898Z,4.07
2018-03-11T23:11:36.106Z,4.27
2018-03-11T23:14:03.325Z,4.10
2018-03-11T23:16:31.086Z,3.77
2018-03-11T23:19:04.159Z,5.37
2018-03-11T23:21:31.259Z,3.73
2018-03-11T23:23:58.314Z,3.80
2018-03-11T23:26:25.526Z,3.90
2018-03-11T23:28:52.699Z,4.07
2018-03-11T23:31:19.760Z,3.83
2018-03-11T23:33:46.857Z,4.47
2018-03-11T23:36:14.043Z,4.27
2018-03-11T23:38:41.001Z,4.53
2018-03-11T23:41:08.127Z,4.30
2018-03-11T23:43:35.251Z,4.73
2018-03-11T23:46:02.769Z,4.60
2018-03-11T23:48:30.113Z,4.50
2018-03-11T23:50:57.228Z,4.93
2018-03-11T23:53:24.152Z,5.43
2018-03-11T23:55:51.612Z,5.17
2018-03-11T23:58:18.748Z,6.00
